Time;durP1;ratioP1;P1;durP2;ratioP2;P2;SDS_P1;SDS_P2;PMS_P1;PMS_P2;Temp;Humidity;BMP_temperature;BMP_pressure;BME280_temperature;BME280_humidity;BME280_pressure;Samples;Min_cycle;Max_cycle;Signal;HPM_P1;HPM_P2
2023/05/03 00:00:59;;;;;;;3.78;2.47;;;;;;;;;;5008493;28;20034;-84
2023/05/03 00:03:25;;;;;;;3.42;2.60;;;;;;;;;;5012189;28;20034;-84
2023/05/03 00:05:51;;;;;;;3.63;2.47;;;;;;;;;;5011942;28;20404;-84
2023/05/03 00:08:16;;;;;;;3.25;2.35;;;;;;;;;;5010094;28;20073;-85
2023/05/03 00:10:42;;;;;;;2.70;2.25;;;;;;;;;;5023330;28;20088;-84
2023/05/03 00:13:07;;;;;;;2.92;2.40;;;;;;;;;;5008133;28;20042;-84
2023/05/03 00:15:32;;;;;;;3.38;2.22;;;;;;;;;;5023305;28;20102;-84
2023/05/03 00:17:58;;;;;;;5.45;2.20;;;;;;;;;;5008326;28;20049;-84
2023/05/03 00:20:24;;;;;;;4.72;2.40;;;;;;;;;;5008183;28;20054;-84
2023/05/03 00:22:50;;;;;;;2.92;2.28;;;;;;;;;;5022749;28;20030;-84
2023/05/03 00:25:15;;;;;;;5.45;2.25;;;;;;;;;;5011747;28;20034;-84
2023/05/03 00:27:41;;;;;;;2.80;2.33;;;;;;;;;;5041180;28;20030;-84
2023/05/03 00:30:08;;;;;;;3.22;2.50;;;;;;;;;;5010124;28;20042;-84
2023/05/03 00:32:33;;;;;;;3.00;2.65;;;;;;;;;;5022159;28;20040;-84
2023/05/03 00:34:59;;;;;;;4.03;2.80;;;;;;;;;;5015447;28;20038;-84
2023/05/03 00:37:25;;;;;;;5.20;2.70;;;;;;;;;;5022869;28;20022;-84
2023/05/03 00:39:50;;;;;;;4.90;2.72;;;;;;;;;;5007812;28;20053;-84
2023/05/03 00:42:16;;;;;;;3.53;2.55;;;;;;;;;;5022952;28;20034;-85
2023/05/03 00:44:42;;;;;;;5.28;2.80;;;;;;;;;;5005835;28;20042;-84
2023/05/03 00:47:08;;;;;;;3.45;2.83;;;;;;;;;;5006006;28;20048;-84
2023/05/03 00:49:34;;;;;;;3.47;2.35;;;;;;;;;;5006643;28;20035;-85
2023/05/03 00:52:00;;;;;;;4.20;2.70;;;;;;;;;;5022904;28;20572;-85
2023/05/03 00:54:27;;;;;;;4.93;2.53;;;;;;;;;;5006679;28;20237;-84
2023/05/03 00:56:54;;;;;;;6.80;2.75;;;;;;;;;;5005941;28;20057;-84
2023/05/03 00:59:20;;;;;;;7.50;2.75;;;;;;;;;;5003383;28;20029;-84
2023/05/03 01:01:50;;;;;;;4.90;2.80;;;;;;;;;;5021605;28;20037;-84
2023/05/03 01:04:17;;;;;;;3.05;2.55;;;;;;;;;;5020441;28;20038;-83
2023/05/03 01:06:53;;;;;;;3.85;2.63;;;;;;;;;;5007076;28;20038;-84
2023/05/03 01:09:30;;;;;;;2.78;2.33;;;;;;;;;;5005757;28;20044;-84
2023/05/03 01:12:10;;;;;;;3.67;2.60;;;;;;;;;;5008569;28;20030;-84
2023/05/03 01:14:42;;;;;;;3.10;2.58;;;;;;;;;;4994884;28;20073;-84
2023/05/03 01:17:11;;;;;;;2.83;2.42;;;;;;;;;;5024515;28;20069;-84
2023/05/03 01:19:43;;;;;;;3.58;2.50;;;;;;;;;;5019602;28;20085;-84
2023/05/03 01:22:32;;;;;;;3.03;2.42;;;;;;;;;;5003047;28;20538;-84
2023/05/03 01:25:09;;;;;;;3.30;2.45;;;;;;;;;;5000503;28;20034;-85
2023/05/03 01:27:35;;;;;;;2.72;2.15;;;;;;;;;;5014672;28;20049;-84
2023/05/03 01:30:11;;;;;;;3.45;2.20;;;;;;;;;;5010298;28;20121;-84
2023/05/03 01:32:37;;;;;;;3.05;2.47;;;;;;;;;;5044577;28;20065;-84
2023/05/03 01:35:12;;;;;;;3.10;2.50;;;;;;;;;;5024313;28;20022;-84
2023/05/03 01:37:38;;;;;;;3.67;2.65;;;;;;;;;;5009168;28;20077;-84
2023/05/03 01:40:07;;;;;;;4.38;2.78;;;;;;;;;;5008534;28;20046;-83
2023/05/03 01:42:37;;;;;;;4.55;2.50;;;;;;;;;;5025277;28;20042;-84
2023/05/03 01:45:03;;;;;;;4.35;2.70;;;;;;;;;;5009003;28;20042;-83
2023/05/03 01:47:29;;;;;;;3.53;2.60;;;;;;;;;;5034235;28;20037;-83
2023/05/03 01:49:55;;;;;;;3.65;2.60;;;;;;;;;;5025660;28;20071;-83
2023/05/03 01:52:22;;;;;;;3.95;2.47;;;;;;;;;;5024475;28;20475;-83
2023/05/03 01:54:47;;;;;;;3.70;2.40;;;;;;;;;;5036685;28;20040;-85
2023/05/03 01:57:12;;;;;;;3.20;2.50;;;;;;;;;;5033836;28;20062;-85
2023/05/03 01:59:38;;;;;;;2.95;2.33;;;;;;;;;;5028558;28;20093;-84
2023/05/03 02:02:03;;;;;;;3.58;2.60;;;;;;;;;;5026233;28;20049;-83
2023/05/03 02:04:29;;;;;;;3.53;2.53;;;;;;;;;;5008380;28;20038;-83
2023/05/03 02:06:55;;;;;;;3.10;2.70;;;;;;;;;;5008487;28;20034;-83
2023/05/03 02:09:21;;;;;;;2.60;2.40;;;;;;;;;;5007449;28;20038;-85
2023/05/03 02:11:47;;;;;;;4.07;2.50;;;;;;;;;;5018832;28;20069;-84
2023/05/03 02:14:12;;;;;;;4.00;2.53;;;;;;;;;;5013611;28;20049;-84
2023/05/03 02:16:38;;;;;;;3.05;2.50;;;;;;;;;;5027007;28;20031;-84
2023/05/03 02:19:04;;;;;;;4.00;2.38;;;;;;;;;;5009183;28;20037;-83
2023/05/03 02:21:30;;;;;;;2.97;2.50;;;;;;;;;;5008715;28;20039;-82
2023/05/03 02:23:55;;;;;;;4.50;2.42;;;;;;;;;;5022207;28;20042;-83
2023/05/03 02:26:21;;;;;;;2.88;2.50;;;;;;;;;;4990116;28;20038;-84
2023/05/03 02:28:46;;;;;;;3.03;2.40;;;;;;;;;;5023150;28;20034;-84
2023/05/03 02:31:12;;;;;;;4.55;2.47;;;;;;;;;;5008471;28;20042;-85
2023/05/03 02:33:40;;;;;;;3.47;2.53;;;;;;;;;;5019591;28;20030;-84
2023/05/03 02:36:05;;;;;;;3.95;2.50;;;;;;;;;;5000800;28;20073;-83
2023/05/03 02:38:32;;;;;;;3.65;2.50;;;;;;;;;;5022910;28;20032;-82
2023/05/03 02:40:58;;;;;;;3.03;2.70;;;;;;;;;;5020995;28;20106;-86
2023/05/03 02:43:24;;;;;;;2.63;2.30;;;;;;;;;;5034555;28;20037;-84
2023/05/03 02:45:50;;;;;;;4.47;2.53;;;;;;;;;;5031302;28;20037;-85
2023/05/03 02:48:16;;;;;;;3.13;2.30;;;;;;;;;;5027739;28;20062;-86
2023/05/03 02:50:41;;;;;;;5.35;2.45;;;;;;;;;;5010558;28;20030;-85
2023/05/03 02:53:07;;;;;;;4.20;2.40;;;;;;;;;;5033914;28;20044;-85
2023/05/03 02:55:33;;;;;;;4.75;2.53;;;;;;;;;;5039778;28;20029;-83
2023/05/03 02:57:59;;;;;;;4.32;2.50;;;;;;;;;;5019755;28;20029;-83
2023/05/03 03:00:25;;;;;;;3.88;2.40;;;;;;;;;;5016961;28;20030;-84
2023/05/03 03:02:51;;;;;;;5.95;2.28;;;;;;;;;;5011469;28;20030;-85
2023/05/03 03:05:16;;;;;;;3.55;2.95;;;;;;;;;;5006215;28;20476;-85
2023/05/03 03:07:46;;;;;;;4.57;2.53;;;;;;;;;;5022610;28;20053;-85
2023/05/03 03:10:12;;;;;;;4.93;3.30;;;;;;;;;;5003736;28;20424;-86
2023/05/03 03:12:38;;;;;;;3.70;3.10;;;;;;;;;;5037340;28;20511;-82
2023/05/03 03:15:07;;;;;;;5.88;3.28;;;;;;;;;;5030523;28;20022;-82
2023/05/03 03:17:37;;;;;;;3.53;2.80;;;;;;;;;;5015513;28;20034;-84
2023/05/03 03:20:10;;;;;;;4.38;2.80;;;;;;;;;;5029164;28;20030;-83
2023/05/03 03:22:37;;;;;;;3.95;2.88;;;;;;;;;;5008551;28;20046;-85
2023/05/03 03:25:04;;;;;;;5.15;3.10;;;;;;;;;;5007548;28;20561;-85
2023/05/03 03:27:29;;;;;;;5.35;3.05;;;;;;;;;;5022480;28;20152;-84
2023/05/03 03:29:55;;;;;;;4.03;2.88;;;;;;;;;;5007384;28;20026;-85
2023/05/03 03:32:21;;;;;;;3.50;2.70;;;;;;;;;;5006270;28;20038;-84
2023/05/03 03:34:47;;;;;;;4.45;2.40;;;;;;;;;;5019266;28;20118;-83
2023/05/03 03:37:13;;;;;;;3.50;2.55;;;;;;;;;;5021704;28;20034;-84
2023/05/03 03:39:40;;;;;;;3.10;2.40;;;;;;;;;;5021967;28;20038;-83
2023/05/03 03:42:06;;;;;;;3.28;2.58;;;;;;;;;;5015587;28;20042;-84
2023/05/03 03:44:32;;;;;;;2.50;2.20;;;;;;;;;;5036978;28;20246;-84
2023/05/03 03:46:58;;;;;;;4.82;2.42;;;;;;;;;;5013214;28;20044;-84
2023/05/03 03:49:24;;;;;;;6.85;2.50;;;;;;;;;;5032806;28;20094;-85
2023/05/03 03:51:50;;;;;;;3.42;2.70;;;;;;;;;;5013956;28;20070;-84
2023/05/03 03:54:15;;;;;;;4.40;2.70;;;;;;;;;;5010806;28;20492;-84
2023/05/03 03:56:45;;;;;;;3.45;2.38;;;;;;;;;;5023692;28;20038;-85
2023/05/03 03:59:11;;;;;;;3.00;2.40;;;;;;;;;;5021229;28;20061;-83
2023/05/03 04:01:37;;;;;;;4.07;2.40;;;;;;;;;;5005747;28;20037;-84
2023/05/03 04:04:04;;;;;;;4.47;2.88;;;;;;;;;;5005199;28;20034;-85
2023/05/03 04:06:31;;;;;;;4.03;2.90;;;;;;;;;;5022208;28;20038;-85
2023/05/03 04:08:58;;;;;;;3.50;2.70;;;;;;;;;;5022341;28;20038;-84
2023/05/03 04:11:23;;;;;;;4.25;2.78;;;;;;;;;;5022060;28;20041;-84
2023/05/03 04:13:54;;;;;;;3.40;2.70;;;;;;;;;;5023380;28;20034;-84
2023/05/03 04:16:20;;;;;;;3.78;3.00;;;;;;;;;;5039228;28;20045;-84
2023/05/03 04:18:46;;;;;;;4.82;3.00;;;;;;;;;;5034024;28;20029;-83
2023/05/03 04:21:12;;;;;;;4.03;2.85;;;;;;;;;;4995228;28;20041;-83
2023/05/03 04:23:39;;;;;;;5.07;2.90;;;;;;;;;;5013564;28;20034;-85
2023/05/03 04:26:06;;;;;;;4.35;2.90;;;;;;;;;;4992217;28;20045;-85
2023/05/03 04:28:34;;;;;;;4.97;2.97;;;;;;;;;;5023303;28;20389;-85
2023/05/03 04:30:59;;;;;;;3.63;2.90;;;;;;;;;;5005077;28;20069;-83
2023/05/03 04:33:28;;;;;;;3.70;3.05;;;;;;;;;;5004219;28;20097;-82
2023/05/03 04:35:56;;;;;;;3.33;2.90;;;;;;;;;;4988440;28;20041;-84
2023/05/03 04:38:23;;;;;;;3.22;2.75;;;;;;;;;;5030384;28;20033;-84
2023/05/03 04:40:49;;;;;;;4.65;2.80;;;;;;;;;;5012332;28;20034;-84
2023/05/03 04:43:16;;;;;;;6.25;3.15;;;;;;;;;;5024784;28;20042;-85
2023/05/03 04:45:44;;;;;;;5.85;3.22;;;;;;;;;;5022563;28;20064;-85
2023/05/03 04:48:16;;;;;;;4.15;3.13;;;;;;;;;;5020091;28;20105;-83
2023/05/03 04:50:42;;;;;;;4.55;2.90;;;;;;;;;;5017520;28;20050;-85
2023/05/03 04:53:09;;;;;;;5.95;3.67;;;;;;;;;;5022594;28;20389;-84
2023/05/03 04:55:38;;;;;;;5.68;3.60;;;;;;;;;;5032064;28;20031;-84
2023/05/03 04:58:04;;;;;;;5.10;3.45;;;;;;;;;;5032889;28;20522;-84
2023/05/03 05:00:30;;;;;;;6.70;3.63;;;;;;;;;;5030432;28;20065;-84
2023/05/03 05:03:02;;;;;;;4.97;3.45;;;;;;;;;;5027592;28;20038;-85
2023/05/03 05:05:29;;;;;;;3.90;3.30;;;;;;;;;;5009639;28;20038;-83
2023/05/03 05:07:58;;;;;;;4.30;3.08;;;;;;;;;;5009558;28;20057;-85
2023/05/03 05:10:27;;;;;;;5.47;3.35;;;;;;;;;;5023938;28;20034;-85
2023/05/03 05:12:54;;;;;;;4.32;3.30;;;;;;;;;;5009270;28;20084;-85
2023/05/03 05:15:20;;;;;;;5.70;3.65;;;;;;;;;;5021689;28;20106;-86
2023/05/03 05:17:46;;;;;;;3.70;3.20;;;;;;;;;;5011255;28;20041;-84
2023/05/03 05:20:12;;;;;;;4.25;3.58;;;;;;;;;;5010549;28;20026;-84
2023/05/03 05:22:40;;;;;;;4.18;3.55;;;;;;;;;;5010211;28;20035;-86
2023/05/03 05:25:06;;;;;;;4.13;3.45;;;;;;;;;;5022418;28;20113;-85
2023/05/03 05:27:33;;;;;;;6.15;3.70;;;;;;;;;;5021833;28;20099;-84
2023/05/03 05:29:59;;;;;;;7.38;3.80;;;;;;;;;;5034323;28;20029;-85
2023/05/03 05:32:25;;;;;;;4.93;3.47;;;;;;;;;;5030838;28;20035;-86
2023/05/03 05:34:54;;;;;;;4.70;3.28;;;;;;;;;;5013113;28;20049;-85
2023/05/03 05:37:24;;;;;;;5.25;3.35;;;;;;;;;;5009699;28;20053;-85
2023/05/03 05:39:50;;;;;;;10.18;4.28;;;;;;;;;;4992893;28;20334;-83
2023/05/03 05:42:18;;;;;;;4.85;3.40;;;;;;;;;;5026153;28;20038;-85
2023/05/03 05:44:44;;;;;;;3.85;2.92;;;;;;;;;;5017120;28;20038;-85
2023/05/03 05:47:11;;;;;;;5.53;4.45;;;;;;;;;;5035479;28;20083;-84
2023/05/03 05:49:37;;;;;;;6.38;4.00;;;;;;;;;;5021562;28;20066;-85
2023/05/03 05:52:04;;;;;;;3.63;2.60;;;;;;;;;;5023814;28;20041;-84
2023/05/03 05:54:30;;;;;;;8.88;3.38;;;;;;;;;;5003087;28;20053;-84
2023/05/03 05:56:56;;;;;;;6.13;3.60;;;;;;;;;;5018231;28;20121;-86
2023/05/03 05:59:22;;;;;;;10.20;3.20;;;;;;;;;;5001883;28;20769;-87
2023/05/03 06:01:47;;;;;;;6.57;3.20;;;;;;;;;;5001852;28;20042;-88
2023/05/03 06:04:16;;;;;;;7.05;3.10;;;;;;;;;;5013028;28;20037;-86
2023/05/03 06:06:43;;;;;;;5.15;3.03;;;;;;;;;;5014304;28;20599;-85
2023/05/03 06:09:09;;;;;;;7.68;3.10;;;;;;;;;;5019597;28;20522;-86
2023/05/03 06:11:36;;;;;;;6.38;3.28;;;;;;;;;;5021516;28;20038;-86
2023/05/03 06:14:02;;;;;;;9.80;2.85;;;;;;;;;;5034056;28;20578;-87
2023/05/03 06:16:29;;;;;;;4.15;2.80;;;;;;;;;;5029633;28;20022;-85
2023/05/03 06:18:55;;;;;;;6.43;3.47;;;;;;;;;;5027745;28;20106;-86
2023/05/03 06:21:21;;;;;;;5.82;3.80;;;;;;;;;;5025354;28;20030;-86
2023/05/03 06:23:47;;;;;;;4.40;3.38;;;;;;;;;;5021752;28;20125;-86
2023/05/03 06:26:12;;;;;;;10.23;3.58;;;;;;;;;;5002972;28;20082;-87
2023/05/03 06:28:38;;;;;;;3.97;3.30;;;;;;;;;;5018970;28;20072;-86
2023/05/03 06:31:03;;;;;;;4.07;3.28;;;;;;;;;;5007802;28;20030;-85
2023/05/03 06:33:31;;;;;;;5.20;3.65;;;;;;;;;;5002348;28;20481;-87
2023/05/03 06:35:57;;;;;;;4.68;3.47;;;;;;;;;;5025094;28;20035;-86
2023/05/03 06:38:23;;;;;;;4.85;3.25;;;;;;;;;;5019419;28;20057;-85
2023/05/03 06:40:50;;;;;;;4.50;3.38;;;;;;;;;;5003466;28;20070;-86
2023/05/03 06:43:15;;;;;;;3.95;3.10;;;;;;;;;;5002174;28;20037;-87
2023/05/03 06:45:52;;;;;;;5.03;3.17;;;;;;;;;;5017474;28;20063;-85
2023/05/03 06:48:17;;;;;;;5.13;3.65;;;;;;;;;;5015058;28;20496;-85
2023/05/03 06:50:43;;;;;;;6.43;4.05;;;;;;;;;;5016136;28;20096;-85
2023/05/03 06:53:08;;;;;;;7.80;4.85;;;;;;;;;;4993020;28;20040;-85
2023/05/03 06:55:34;;;;;;;9.88;6.95;;;;;;;;;;5015924;28;20510;-84
2023/05/03 06:58:00;;;;;;;10.05;7.40;;;;;;;;;;5000109;28;20513;-83
2023/05/03 07:00:26;;;;;;;9.73;6.82;;;;;;;;;;5003901;28;20036;-86
2023/05/03 07:02:51;;;;;;;13.25;8.38;;;;;;;;;;4998019;28;20037;-86
2023/05/03 07:05:17;;;;;;;12.15;8.73;;;;;;;;;;5013323;28;20393;-86
2023/05/03 07:07:42;;;;;;;12.93;9.20;;;;;;;;;;4977948;28;20509;-84
2023/05/03 07:10:08;;;;;;;15.32;9.50;;;;;;;;;;4997316;28;20049;-85
2023/05/03 07:12:33;;;;;;;16.85;9.68;;;;;;;;;;5000686;28;20038;-84
2023/05/03 07:14:58;;;;;;;15.40;9.70;;;;;;;;;;5000830;28;20030;-84
2023/05/03 07:17:24;;;;;;;13.02;9.65;;;;;;;;;;5031059;28;20057;-85
2023/05/03 07:19:50;;;;;;;12.80;9.35;;;;;;;;;;5026103;28;20040;-84
2023/05/03 07:22:16;;;;;;;13.55;9.95;;;;;;;;;;5003911;28;20069;-86
2023/05/03 07:24:42;;;;;;;13.32;10.18;;;;;;;;;;5000075;28;20038;-84
2023/05/03 07:27:08;;;;;;;14.07;10.15;;;;;;;;;;5013629;28;20034;-85
2023/05/03 07:29:33;;;;;;;14.38;9.68;;;;;;;;;;5001778;28;20385;-85
2023/05/03 07:31:59;;;;;;;14.63;10.27;;;;;;;;;;5013102;28;20042;-83
2023/05/03 07:34:24;;;;;;;13.02;10.13;;;;;;;;;;5013287;28;20558;-85
2023/05/03 07:36:50;;;;;;;12.68;9.38;;;;;;;;;;5006089;28;20125;-85
2023/05/03 07:39:16;;;;;;;12.80;9.20;;;;;;;;;;5019624;28;20066;-84
2023/05/03 07:41:42;;;;;;;11.70;8.80;;;;;;;;;;5003564;28;20041;-85
2023/05/03 07:44:07;;;;;;;11.98;8.57;;;;;;;;;;5003164;28;20034;-84
2023/05/03 07:46:33;;;;;;;12.90;9.77;;;;;;;;;;5016042;28;20046;-87
2023/05/03 07:49:04;;;;;;;14.75;11.15;;;;;;;;;;5025277;28;20029;-85
2023/05/03 07:51:33;;;;;;;12.57;9.45;;;;;;;;;;5014908;28;20038;-84
2023/05/03 07:53:59;;;;;;;14.50;8.80;;;;;;;;;;5011025;28;20157;-87
2023/05/03 07:56:26;;;;;;;16.40;7.47;;;;;;;;;;5009225;28;20065;-86
2023/05/03 07:58:51;;;;;;;15.82;7.10;;;;;;;;;;5020298;28;20105;-88
2023/05/03 08:01:19;;;;;;;13.88;8.23;;;;;;;;;;5001717;28;20070;-85
2023/05/03 08:03:44;;;;;;;12.95;7.70;;;;;;;;;;5012245;28;20046;-86
2023/05/03 08:06:10;;;;;;;12.13;8.70;;;;;;;;;;5003226;28;20039;-87
2023/05/03 08:08:37;;;;;;;14.40;8.07;;;;;;;;;;5017516;28;20093;-87
2023/05/03 08:11:03;;;;;;;12.60;8.00;;;;;;;;;;5000112;28;20050;-87
2023/05/03 08:13:29;;;;;;;11.18;8.05;;;;;;;;;;5003177;28;20061;-87
2023/05/03 08:15:54;;;;;;;9.45;7.38;;;;;;;;;;5010589;28;20057;-88
2023/05/03 08:18:20;;;;;;;12.95;7.50;;;;;;;;;;4999133;28;20069;-86
2023/05/03 08:20:46;;;;;;;10.18;7.85;;;;;;;;;;4998334;28;20022;-87
2023/05/03 08:23:12;;;;;;;9.75;7.00;;;;;;;;;;5012862;28;20480;-85
2023/05/03 08:25:37;;;;;;;9.48;6.70;;;;;;;;;;5000093;28;20057;-87
2023/05/03 08:28:03;;;;;;;12.02;7.70;;;;;;;;;;5002062;28;20524;-86
2023/05/03 08:30:29;;;;;;;12.95;8.60;;;;;;;;;;5018172;28;20029;-87
2023/05/03 08:32:55;;;;;;;9.55;7.80;;;;;;;;;;5001595;28;20037;-89
2023/05/03 08:35:20;;;;;;;10.98;7.93;;;;;;;;;;5019247;28;20483;-85
2023/05/03 08:37:46;;;;;;;15.45;8.20;;;;;;;;;;5036730;28;20376;-85
2023/05/03 08:40:13;;;;;;;10.68;7.82;;;;;;;;;;5016608;28;20033;-86
2023/05/03 08:42:43;;;;;;;10.73;8.18;;;;;;;;;;5016004;28;20582;-86
2023/05/03 08:45:14;;;;;;;13.32;8.05;;;;;;;;;;5025436;28;20046;-85
2023/05/03 08:47:43;;;;;;;14.60;8.20;;;;;;;;;;5008685;28;20038;-86
2023/05/03 08:50:13;;;;;;;10.98;7.85;;;;;;;;;;5001245;28;20034;-87
2023/05/03 08:52:42;;;;;;;13.85;8.55;;;;;;;;;;5005083;28;20023;-87
2023/05/03 08:55:09;;;;;;;11.30;7.85;;;;;;;;;;5011663;28;20053;-87
2023/05/03 08:57:34;;;;;;;10.15;7.22;;;;;;;;;;5004166;28;20149;-87
2023/05/03 09:00:01;;;;;;;11.13;8.05;;;;;;;;;;5002654;28;20789;-84
2023/05/03 09:02:27;;;;;;;12.02;8.65;;;;;;;;;;5005059;28;20034;-86
2023/05/03 09:04:55;;;;;;;11.82;8.35;;;;;;;;;;5004776;28;20068;-86
2023/05/03 09:07:20;;;;;;;13.27;8.50;;;;;;;;;;5004588;28;20049;-86
2023/05/03 09:09:46;;;;;;;13.80;8.65;;;;;;;;;;5004752;28;20068;-87
2023/05/03 09:12:12;;;;;;;14.05;8.45;;;;;;;;;;5004324;28;20102;-87
2023/05/03 09:14:42;;;;;;;12.43;9.10;;;;;;;;;;5004354;28;20415;-87
2023/05/03 09:17:16;;;;;;;12.63;8.85;;;;;;;;;;5005285;28;20046;-88
2023/05/03 09:19:52;;;;;;;12.02;7.80;;;;;;;;;;5004417;28;20050;-86
2023/05/03 09:22:18;;;;;;;14.13;9.25;;;;;;;;;;5005002;28;20046;-86
2023/05/03 09:24:54;;;;;;;12.57;8.93;;;;;;;;;;5004363;28;20106;-85
2023/05/03 09:27:20;;;;;;;13.15;8.80;;;;;;;;;;5004218;28;20305;-86
2023/05/03 09:29:46;;;;;;;12.48;9.20;;;;;;;;;;5004463;28;20073;-86
2023/05/03 09:32:12;;;;;;;9.38;6.53;;;;;;;;;;5022382;28;20044;-87
2023/05/03 09:34:37;;;;;;;10.25;6.75;;;;;;;;;;5027267;28;20281;-86
2023/05/03 09:37:03;;;;;;;10.68;6.85;;;;;;;;;;5017133;28;20042;-87
2023/05/03 09:39:29;;;;;;;8.63;6.20;;;;;;;;;;4999458;28;20026;-87
2023/05/03 09:41:55;;;;;;;7.88;6.13;;;;;;;;;;4997889;28;20121;-85
2023/05/03 09:44:40;;;;;;;8.07;6.13;;;;;;;;;;5001607;28;20018;-85
2023/05/03 09:47:06;;;;;;;8.07;6.38;;;;;;;;;;5017047;28;20041;-83
2023/05/03 09:49:32;;;;;;;8.40;6.32;;;;;;;;;;5016841;28;20097;-85
2023/05/03 09:51:58;;;;;;;8.18;6.07;;;;;;;;;;5024050;28;20057;-85
2023/05/03 09:54:24;;;;;;;8.20;6.30;;;;;;;;;;5012351;28;20037;-84
2023/05/03 09:56:51;;;;;;;8.18;6.28;;;;;;;;;;5009528;28;20041;-83
2023/05/03 09:59:17;;;;;;;7.30;5.72;;;;;;;;;;5004657;28;20029;-85
2023/05/03 10:01:43;;;;;;;7.00;5.63;;;;;;;;;;5002586;28;20527;-86
2023/05/03 10:04:10;;;;;;;7.85;5.88;;;;;;;;;;5001216;28;20105;-86
2023/05/03 10:06:42;;;;;;;6.38;5.40;;;;;;;;;;5000506;28;20062;-85
2023/05/03 10:09:15;;;;;;;9.70;5.80;;;;;;;;;;4997051;28;20125;-86
2023/05/03 10:11:51;;;;;;;8.88;5.82;;;;;;;;;;5001740;28;20066;-85
2023/05/03 10:14:17;;;;;;;8.35;6.35;;;;;;;;;;5003031;28;20045;-85
2023/05/03 10:16:48;;;;;;;7.38;6.60;;;;;;;;;;4983280;28;20026;-86
2023/05/03 10:19:18;;;;;;;9.25;5.70;;;;;;;;;;5006110;28;20042;-86
2023/05/03 10:21:47;;;;;;;7.55;5.60;;;;;;;;;;5003923;28;20048;-85
2023/05/03 10:24:15;;;;;;;6.43;5.30;;;;;;;;;;5006673;28;20045;-86
2023/05/03 10:26:46;;;;;;;9.70;5.38;;;;;;;;;;5003501;28;20033;-86
2023/05/03 10:29:47;;;;;;;5.47;4.60;;;;;;;;;;5014760;28;20070;-87
2023/05/03 10:32:41;;;;;;;7.70;5.70;;;;;;;;;;4999031;28;20034;-85
2023/05/03 10:35:13;;;;;;;9.80;4.95;;;;;;;;;;5005115;28;20026;-86
2023/05/03 10:37:42;;;;;;;5.03;4.45;;;;;;;;;;5027562;28;20041;-87
2023/05/03 10:40:16;;;;;;;5.47;4.18;;;;;;;;;;5025145;28;20044;-87
2023/05/03 10:42:53;;;;;;;5.80;4.10;;;;;;;;;;5004823;28;20530;-84
2023/05/03 10:45:27;;;;;;;7.00;4.63;;;;;;;;;;5007127;28;20069;-85
2023/05/03 10:48:11;;;;;;;5.82;4.57;;;;;;;;;;5009908;28;20034;-86
2023/05/03 10:50:37;;;;;;;;;;;;;;;;;;4991835;28;20035;-85
2023/05/03 10:53:02;;;;;;;6.82;5.60;;;;;;;;;;5003779;28;20296;-87
2023/05/03 10:55:28;;;;;;;6.60;5.10;;;;;;;;;;4998851;28;20030;-87
2023/05/03 10:57:57;;;;;;;7.38;5.30;;;;;;;;;;5008908;28;20511;-85
2023/05/03 11:00:31;;;;;;;6.18;4.75;;;;;;;;;;5004793;28;20057;-87
2023/05/03 11:03:31;;;;;;;8.95;5.28;;;;;;;;;;5006718;28;20049;-87
2023/05/03 11:05:57;;;;;;;6.07;5.40;;;;;;;;;;5013912;28;20038;-87
2023/05/03 11:08:26;;;;;;;6.75;5.18;;;;;;;;;;4988725;28;20046;-87
2023/05/03 11:10:58;;;;;;;6.20;5.03;;;;;;;;;;5006252;28;20113;-87
2023/05/03 11:13:24;;;;;;;7.22;5.35;;;;;;;;;;4999396;28;20526;-87
2023/05/03 11:15:53;;;;;;;7.53;5.95;;;;;;;;;;5011352;28;20038;-86
2023/05/03 11:18:19;;;;;;;6.57;5.60;;;;;;;;;;4998975;28;20488;-87
2023/05/03 11:20:44;;;;;;;8.95;5.53;;;;;;;;;;5002941;28;20066;-87
2023/05/03 11:23:11;;;;;;;7.75;4.78;;;;;;;;;;5021437;28;20105;-87
2023/05/03 11:25:37;;;;;;;6.30;5.10;;;;;;;;;;5005344;28;20049;-87
2023/05/03 11:28:03;;;;;;;7.15;5.20;;;;;;;;;;5000818;28;20034;-87
2023/05/03 11:30:31;;;;;;;6.57;4.88;;;;;;;;;;5014711;28;20034;-87
2023/05/03 11:32:58;;;;;;;7.35;5.18;;;;;;;;;;4999580;28;20042;-87
2023/05/03 11:35:25;;;;;;;7.22;5.45;;;;;;;;;;5005819;28;20038;-87
2023/05/03 11:37:52;;;;;;;7.25;5.05;;;;;;;;;;5012163;28;20045;-86
2023/05/03 11:40:18;;;;;;;6.00;4.82;;;;;;;;;;5023154;28;20046;-87
2023/05/03 11:42:59;;;;;;;5.72;4.65;;;;;;;;;;5018144;28;20093;-86
2023/05/03 11:45:30;;;;;;;5.93;4.90;;;;;;;;;;5011472;28;20515;-87
2023/05/03 11:47:56;;;;;;;7.85;4.97;;;;;;;;;;4993981;28;20047;-88
2023/05/03 11:50:49;;;;;;;5.80;4.45;;;;;;;;;;5014759;28;20037;-89
2023/05/03 11:53:16;;;;;;;6.70;4.80;;;;;;;;;;5002822;28;20049;-89
2023/05/03 11:55:47;;;;;;;7.88;5.03;;;;;;;;;;4999352;28;20049;-87
2023/05/03 11:58:21;;;;;;;8.18;4.80;;;;;;;;;;5005376;28;20484;-87
2023/05/03 12:00:49;;;;;;;6.15;5.00;;;;;;;;;;5007830;28;20049;-88
2023/05/03 12:03:22;;;;;;;10.27;5.28;;;;;;;;;;4998596;28;20073;-86
2023/05/03 12:05:50;;;;;;;6.80;4.57;;;;;;;;;;5006321;28;20045;-86
2023/05/03 12:08:17;;;;;;;7.88;5.00;;;;;;;;;;5010298;28;20547;-86
2023/05/03 12:10:43;;;;;;;5.35;4.50;;;;;;;;;;5006142;28;20411;-88
2023/05/03 12:13:09;;;;;;;5.57;4.47;;;;;;;;;;5003461;28;20044;-86
2023/05/03 12:15:36;;;;;;;9.40;4.68;;;;;;;;;;5001255;28;20026;-85
2023/05/03 12:18:07;;;;;;;7.65;4.75;;;;;;;;;;4996893;28;20096;-86
2023/05/03 12:20:35;;;;;;;5.80;4.60;;;;;;;;;;4996318;28;20041;-86
2023/05/03 12:23:06;;;;;;;13.82;5.18;;;;;;;;;;5007378;28;20038;-87
2023/05/03 12:25:33;;;;;;;6.35;4.60;;;;;;;;;;4996284;28;20038;-87
2023/05/03 12:28:04;;;;;;;6.38;4.68;;;;;;;;;;5017852;28;20072;-88
2023/05/03 12:30:30;;;;;;;7.57;4.35;;;;;;;;;;5008126;28;20084;-87
2023/05/03 12:32:55;;;;;;;7.43;5.03;;;;;;;;;;5004858;28;20038;-87
2023/05/03 12:35:21;;;;;;;7.05;4.32;;;;;;;;;;5000351;28;20037;-87
2023/05/03 12:37:48;;;;;;;8.50;4.60;;;;;;;;;;4998042;28;20072;-87
2023/05/03 12:40:15;;;;;;;10.20;4.63;;;;;;;;;;5007410;28;20038;-88
2023/05/03 12:42:41;;;;;;;5.95;4.68;;;;;;;;;;5010110;28;20080;-87
2023/05/03 12:45:07;;;;;;;9.50;4.95;;;;;;;;;;5005919;28;20623;-87
2023/05/03 12:47:33;;;;;;;6.85;5.15;;;;;;;;;;5001459;28;20065;-87
2023/05/03 12:49:59;;;;;;;9.07;4.90;;;;;;;;;;4992563;28;20034;-87
2023/05/03 12:52:25;;;;;;;7.85;4.88;;;;;;;;;;4995478;28;20030;-87
2023/05/03 12:54:51;;;;;;;5.75;4.47;;;;;;;;;;4995414;28;20129;-88
2023/05/03 12:57:16;;;;;;;5.60;4.50;;;;;;;;;;5010054;28;20042;-89
2023/05/03 12:59:42;;;;;;;5.78;4.40;;;;;;;;;;5000697;28;20105;-87
2023/05/03 13:02:11;;;;;;;13.05;5.50;;;;;;;;;;4993388;28;20045;-88
2023/05/03 13:04:36;;;;;;;8.52;5.25;;;;;;;;;;4997665;28;20061;-88
2023/05/03 13:07:02;;;;;;;8.05;4.50;;;;;;;;;;4999268;28;20489;-88
2023/05/03 13:09:28;;;;;;;5.47;3.90;;;;;;;;;;4996370;28;20428;-88
2023/05/03 13:11:53;;;;;;;5.20;4.03;;;;;;;;;;5011422;28;20113;-88
2023/05/03 13:14:20;;;;;;;6.22;4.05;;;;;;;;;;5004932;28;20109;-88
2023/05/03 13:16:47;;;;;;;11.25;4.60;;;;;;;;;;4992560;28;20031;-88
2023/05/03 13:19:14;;;;;;;9.18;4.50;;;;;;;;;;4995700;28;20034;-88
2023/05/03 13:21:40;;;;;;;7.80;5.28;;;;;;;;;;5011582;28;20054;-88
2023/05/03 13:24:07;;;;;;;12.75;5.18;;;;;;;;;;4997167;28;20034;-88
2023/05/03 13:26:33;;;;;;;9.77;5.50;;;;;;;;;;5000837;28;20416;-88
2023/05/03 13:29:00;;;;;;;8.23;5.18;;;;;;;;;;5004001;28;20644;-88
2023/05/03 13:31:28;;;;;;;7.07;4.78;;;;;;;;;;5014195;28;20096;-87
2023/05/03 13:33:55;;;;;;;7.93;4.80;;;;;;;;;;5002125;28;20049;-88
2023/05/03 13:36:25;;;;;;;7.13;4.38;;;;;;;;;;5005852;28;20057;-87
2023/05/03 13:38:51;;;;;;;7.45;4.50;;;;;;;;;;5004306;28;20036;-88
2023/05/03 13:41:17;;;;;;;8.98;4.45;;;;;;;;;;4999475;28;20030;-88
2023/05/03 13:43:43;;;;;;;11.85;4.95;;;;;;;;;;5001927;28;20034;-88
2023/05/03 13:46:09;;;;;;;5.00;4.30;;;;;;;;;;5016456;28;20121;-88
2023/05/03 13:48:34;;;;;;;7.10;4.78;;;;;;;;;;5005064;28;20053;-88
2023/05/03 13:51:07;;;;;;;7.47;4.40;;;;;;;;;;5015204;28;20038;-87
2023/05/03 13:53:32;;;;;;;5.68;4.43;;;;;;;;;;5004683;28;20053;-89
2023/05/03 13:55:58;;;;;;;6.60;4.35;;;;;;;;;;5000356;28;20030;-88
2023/05/03 13:58:23;;;;;;;5.72;4.25;;;;;;;;;;4996294;28;20503;-88
2023/05/03 14:00:49;;;;;;;7.25;5.00;;;;;;;;;;5002708;28;20881;-88
2023/05/03 14:03:14;;;;;;;7.10;4.53;;;;;;;;;;5009892;28;20068;-89
2023/05/03 14:05:40;;;;;;;5.93;4.13;;;;;;;;;;5011789;28;20321;-88
2023/05/03 14:08:05;;;;;;;5.40;4.20;;;;;;;;;;5002155;28;20030;-88
2023/05/03 14:10:33;;;;;;;5.57;4.45;;;;;;;;;;5007480;28;20120;-90
2023/05/03 14:12:59;;;;;;;5.35;4.30;;;;;;;;;;5020996;28;20042;-89
2023/05/03 14:15:24;;;;;;;5.38;4.25;;;;;;;;;;5003486;28;20045;-88
2023/05/03 14:17:50;;;;;;;6.18;4.13;;;;;;;;;;5006522;28;20022;-89
2023/05/03 14:20:16;;;;;;;6.72;4.22;;;;;;;;;;5021616;28;20037;-89
2023/05/03 14:22:43;;;;;;;5.47;4.30;;;;;;;;;;5024606;28;20053;-88
2023/05/03 14:25:09;;;;;;;5.88;4.50;;;;;;;;;;5000992;28;20070;-88
2023/05/03 14:27:34;;;;;;;5.90;4.50;;;;;;;;;;5006155;28;20049;-88
2023/05/03 14:30:00;;;;;;;7.05;4.63;;;;;;;;;;5003971;28;20104;-88
2023/05/03 14:32:26;;;;;;;7.38;4.70;;;;;;;;;;5003983;28;20042;-90
2023/05/03 14:34:51;;;;;;;5.30;4.05;;;;;;;;;;5019959;28;20066;-88
2023/05/03 14:37:17;;;;;;;5.65;4.05;;;;;;;;;;5015581;28;20044;-88
2023/05/03 14:39:42;;;;;;;6.53;3.97;;;;;;;;;;5014508;28;20049;-89
2023/05/03 14:42:09;;;;;;;7.75;3.90;;;;;;;;;;5002177;28;20089;-88